Time;durP1;ratioP1;P1;durP2;ratioP2;P2;SDS_P1;SDS_P2;PMS_P1;PMS_P2;Temp;Humidity;BMP_temperature;BMP_pressure;BME280_temperature;BME280_humidity;BME280_pressure;Samples;Min_cycle;Max_cycle;Signal;HPM_P1;HPM_P2
2021/12/22 00:01:39;;;;;;;50.58;23.10;;;-2.10;99.90;;;;;;5070626;28;20036;-46
2021/12/22 00:04:05;;;;;;;45.33;23.30;;;-2.10;99.90;;;;;;5071957;28;20045;-45
2021/12/22 00:06:33;;;;;;;34.47;17.27;;;-2.10;99.90;;;;;;5065476;28;20082;-46
2021/12/22 00:09:08;;;;;;;29.00;16.60;;;-2.20;99.90;;;;;;5071949;28;20036;-46
2021/12/22 00:11:35;;;;;;;26.88;16.27;;;-2.20;99.90;;;;;;5066504;28;20120;-46
2021/12/22 00:14:00;;;;;;;33.92;17.27;;;-2.20;99.90;;;;;;5070800;28;20398;-46
2021/12/22 00:16:27;;;;;;;34.92;17.58;;;-2.20;99.90;;;;;;5068313;28;20040;-45
2021/12/22 00:18:53;;;;;;;31.08;17.02;;;-2.20;99.90;;;;;;5064915;28;20032;-45
2021/12/22 00:21:21;;;;;;;35.25;17.80;;;-2.20;99.90;;;;;;5068342;28;20043;-46
2021/12/22 00:23:47;;;;;;;38.65;19.42;;;-2.20;99.90;;;;;;5036440;28;20681;-46
2021/12/22 00:26:15;;;;;;;37.30;19.85;;;-2.20;99.90;;;;;;5072045;28;20045;-46
2021/12/22 00:28:41;;;;;;;26.98;15.80;;;-2.20;99.90;;;;;;5067538;28;20040;-46
2021/12/22 00:31:13;;;;;;;28.08;15.43;;;-2.20;99.90;;;;;;5045960;28;20072;-45
2021/12/22 00:33:47;;;;;;;24.48;14.52;;;-2.10;99.90;;;;;;5049380;28;20059;-47
2021/12/22 00:36:16;;;;;;;25.23;15.02;;;-2.20;99.90;;;;;;5061318;28;20120;-46
2021/12/22 00:38:42;;;;;;;25.55;14.10;;;-2.20;99.90;;;;;;5071575;28;20044;-45
2021/12/22 00:41:08;;;;;;;38.20;19.17;;;-2.20;99.90;;;;;;5057150;28;20080;-45
2021/12/22 00:43:35;;;;;;;36.67;19.75;;;-2.20;99.90;;;;;;5059656;28;20538;-46
2021/12/22 00:46:01;;;;;;;51.10;25.67;;;-2.30;99.90;;;;;;5056500;28;20543;-46
2021/12/22 00:48:27;;;;;;;62.08;30.83;;;-2.20;99.90;;;;;;5052242;28;20112;-46
2021/12/22 00:50:53;;;;;;;52.83;25.50;;;-2.30;99.90;;;;;;5071542;28;20377;-45
2021/12/22 00:53:19;;;;;;;40.35;20.33;;;-2.30;99.90;;;;;;5062458;28;20098;-46
2021/12/22 00:55:46;;;;;;;45.17;20.83;;;-2.30;99.90;;;;;;5049650;28;20088;-45
2021/12/22 00:58:16;;;;;;;35.85;18.85;;;-2.30;99.90;;;;;;5049891;28;20148;-45
2021/12/22 01:00:46;;;;;;;33.35;16.42;;;-2.30;99.90;;;;;;5033130;28;20589;-46
2021/12/22 01:03:14;;;;;;;24.30;14.43;;;-2.30;99.90;;;;;;5050509;28;20374;-45
2021/12/22 01:05:40;;;;;;;26.17;14.43;;;-2.30;99.90;;;;;;5064223;28;20082;-46
2021/12/22 01:08:07;;;;;;;25.45;13.98;;;-2.30;99.90;;;;;;5049756;28;20037;-45
2021/12/22 01:10:33;;;;;;;40.78;20.60;;;-2.30;99.90;;;;;;5032662;28;20037;-46
2021/12/22 01:13:01;;;;;;;26.25;14.80;;;-2.30;99.90;;;;;;5051363;28;20099;-45
2021/12/22 01:15:28;;;;;;;26.95;15.68;;;-2.40;99.90;;;;;;5044828;28;20071;-46
2021/12/22 01:18:08;;;;;;;25.75;15.43;;;-2.50;99.90;;;;;;5059679;28;20094;-45
2021/12/22 01:20:57;;;;;;;23.73;14.20;;;;;;;;;;5054550;28;20738;-47
2021/12/22 01:23:24;;;;;;;23.35;14.40;;;-2.40;99.90;;;;;;5055223;28;20119;-46
2021/12/22 01:25:59;;;;;;;22.67;12.70;;;-2.40;99.90;;;;;;5057174;28;20127;-46
2021/12/22 01:28:28;;;;;;;27.23;13.60;;;-2.40;99.90;;;;;;5038291;28;20047;-45
2021/12/22 01:31:00;;;;;;;21.27;12.48;;;-2.50;99.90;;;;;;5049182;28;20041;-46
2021/12/22 01:33:27;;;;;;;22.42;13.25;;;-2.50;99.90;;;;;;5049405;28;20067;-46
2021/12/22 01:35:53;;;;;;;22.38;13.57;;;-2.40;99.90;;;;;;5060175;28;20498;-46
2021/12/22 01:38:19;;;;;;;23.15;13.43;;;-2.50;99.90;;;;;;5068693;28;20054;-45
2021/12/22 01:40:46;;;;;;;20.65;13.10;;;-2.50;99.90;;;;;;5051040;28;20048;-45
2021/12/22 01:43:14;;;;;;;23.27;13.55;;;-2.50;99.90;;;;;;5033921;28;20056;-46
2021/12/22 01:51:56;;;;;;;23.17;13.52;;;-2.50;99.90;;;;;;5069138;28;20174;-46
2021/12/22 01:54:34;;;;;;;21.67;13.20;;;-2.60;99.90;;;;;;5052549;28;20604;-45
2021/12/22 01:57:06;;;;;;;21.42;13.20;;;-2.50;99.90;;;;;;5060388;28;20530;-46
2021/12/22 01:59:32;;;;;;;24.80;13.70;;;-2.50;99.90;;;;;;5036186;28;20052;-46
2021/12/22 02:01:59;;;;;;;23.70;13.73;;;-2.60;99.90;;;;;;5068693;28;20101;-46
2021/12/22 02:04:27;;;;;;;22.58;13.63;;;-2.60;99.90;;;;;;5055395;28;20063;-46
2021/12/22 02:06:53;;;;;;;24.58;14.50;;;-2.50;99.90;;;;;;5056279;28;20045;-45
2021/12/22 02:12:07;;;;;;;27.13;14.45;;;-2.60;99.90;;;;;;5050143;28;20102;-45
2021/12/22 02:14:34;;;;;;;25.23;14.43;;;-2.60;99.90;;;;;;5049959;28;20117;-46
2021/12/22 02:17:02;;;;;;;26.75;13.85;;;-2.60;99.90;;;;;;5050643;28;20049;-45
2021/12/22 02:19:28;;;;;;;27.95;14.73;;;-2.60;99.90;;;;;;5068521;28;20055;-46
2021/12/22 02:21:57;;;;;;;24.92;14.27;;;-2.60;99.90;;;;;;5051696;28;20040;-45
2021/12/22 02:24:23;;;;;;;26.77;14.10;;;-2.60;99.90;;;;;;5068480;28;20036;-45
2021/12/22 02:26:59;;;;;;;23.70;13.80;;;-2.60;99.90;;;;;;5035672;28;20041;-46
2021/12/22 02:29:34;;;;;;;27.02;14.55;;;-2.60;99.90;;;;;;5070300;28;20049;-46
2021/12/22 02:32:07;;;;;;;26.17;15.35;;;-2.60;99.90;;;;;;5046957;28;20056;-47
2021/12/22 02:34:40;;;;;;;24.30;15.13;;;-2.60;99.90;;;;;;5048359;28;20041;-46
2021/12/22 02:37:11;;;;;;;26.10;14.27;;;-2.60;99.90;;;;;;5054894;28;20083;-46
2021/12/22 02:39:45;;;;;;;26.08;13.75;;;-2.70;99.90;;;;;;5048005;28;20659;-45
2021/12/22 02:42:12;;;;;;;21.08;13.35;;;-2.70;99.90;;;;;;5049381;28;20041;-47
2021/12/22 02:44:38;;;;;;;;;;;-2.70;99.90;;;;;;5049659;28;20380;-45
2021/12/22 02:47:22;;;;;;;23.58;13.25;;;-2.70;99.90;;;;;;5066141;28;20014;-45
2021/12/22 02:49:49;;;;;;;26.08;13.13;;;-2.70;99.90;;;;;;5057292;28;20379;-45
2021/12/22 02:52:15;;;;;;;20.80;13.05;;;-2.70;99.90;;;;;;5048412;28;20045;-46
2021/12/22 02:54:48;;;;;;;26.95;13.95;;;-2.80;99.90;;;;;;5053782;28;20049;-46
2021/12/22 02:57:34;;;;;;;27.73;13.95;;;-2.80;99.90;;;;;;5068148;28;20048;-45
2021/12/22 03:05:26;;;;;;;23.60;13.73;;;-2.80;99.90;;;;;;5067770;28;20187;-45
2021/12/22 03:07:52;;;;;;;24.65;14.63;;;-2.80;99.90;;;;;;5068331;28;20080;-46
2021/12/22 03:10:18;;;;;;;24.65;14.23;;;-2.90;99.90;;;;;;5054408;28;20085;-46
2021/12/22 03:12:47;;;;;;;24.52;13.90;;;-2.90;99.90;;;;;;5043772;28;20253;-45
2021/12/22 03:15:13;;;;;;;27.33;15.02;;;-2.90;99.90;;;;;;5061128;28;20089;-46
2021/12/22 03:17:40;;;;;;;24.88;13.65;;;-2.90;99.90;;;;;;5047827;28;20048;-46
2021/12/22 03:20:08;;;;;;;22.30;13.77;;;-2.90;99.90;;;;;;5049400;28;20072;-46
2021/12/22 03:22:36;;;;;;;22.73;13.38;;;-2.90;99.90;;;;;;5048267;28;20048;-45
2021/12/22 03:25:13;;;;;;;22.77;12.77;;;-3.00;99.90;;;;;;5054181;28;20110;-45
2021/12/22 03:27:39;;;;;;;22.27;13.00;;;-2.90;99.90;;;;;;5057368;28;20048;-46
2021/12/22 03:30:06;;;;;;;25.60;14.32;;;-3.00;99.90;;;;;;5068731;28;20052;-45
2021/12/22 03:32:32;;;;;;;23.10;13.30;;;-3.00;99.90;;;;;;5062970;28;20503;-45
2021/12/22 03:34:58;;;;;;;24.55;13.68;;;-3.00;99.90;;;;;;5053116;28;20049;-45
2021/12/22 03:37:24;;;;;;;20.88;13.05;;;-3.00;99.90;;;;;;5053022;28;20053;-46
2021/12/22 03:39:50;;;;;;;23.83;13.70;;;-3.00;99.90;;;;;;5065231;28;20051;-46
2021/12/22 03:42:17;;;;;;;21.30;12.68;;;-3.00;99.90;;;;;;5056179;28;20124;-46
2021/12/22 03:44:49;;;;;;;23.20;12.23;;;-3.00;99.90;;;;;;5051806;28;20048;-45
2021/12/22 03:47:15;;;;;;;23.38;13.38;;;-3.00;99.90;;;;;;5059631;28;20322;-46
2021/12/22 03:49:42;;;;;;;23.38;13.45;;;-3.10;99.90;;;;;;5064203;28;20067;-45
2021/12/22 03:52:08;;;;;;;22.73;12.07;;;-3.10;99.90;;;;;;5060059;28;20120;-45
2021/12/22 03:54:34;;;;;;;23.52;13.25;;;-3.10;99.90;;;;;;5052975;28;20047;-46
2021/12/22 03:57:00;;;;;;;20.88;12.40;;;-3.10;99.90;;;;;;5052301;28;20048;-46
2021/12/22 03:59:26;;;;;;;23.98;13.30;;;-3.10;99.90;;;;;;5052071;28;20037;-46
2021/12/22 04:01:52;;;;;;;22.98;13.02;;;-3.20;99.90;;;;;;5073850;28;20049;-45
2021/12/22 04:04:20;;;;;;;23.45;13.55;;;-3.20;99.90;;;;;;5043402;28;20052;-45
2021/12/22 04:06:49;;;;;;;30.30;13.07;;;-3.20;99.90;;;;;;5065217;28;20037;-45
2021/12/22 04:09:18;;;;;;;23.33;12.82;;;-3.20;99.90;;;;;;5058714;28;20052;-46
2021/12/22 04:11:45;;;;;;;21.92;11.80;;;-3.20;99.90;;;;;;5069932;28;20056;-46
2021/12/22 04:14:12;;;;;;;23.42;12.55;;;-3.20;99.90;;;;;;5052074;28;20071;-45
2021/12/22 04:16:38;;;;;;;23.25;12.57;;;-3.20;99.90;;;;;;5052208;28;20075;-47
2021/12/22 04:19:05;;;;;;;24.48;13.25;;;-3.20;99.90;;;;;;5052020;28;20045;-46
2021/12/22 04:21:32;;;;;;;23.83;13.20;;;-3.20;99.90;;;;;;5088189;28;20539;-45
2021/12/22 04:24:01;;;;;;;19.58;11.57;;;-3.30;99.90;;;;;;5061121;28;20547;-45
2021/12/22 04:26:46;;;;;;;20.85;11.50;;;-3.20;99.90;;;;;;5064573;28;20045;-45
2021/12/22 04:29:13;;;;;;;21.13;12.05;;;-3.20;99.90;;;;;;5051447;28;20427;-46
2021/12/22 04:31:40;;;;;;;23.15;13.85;;;-3.30;99.90;;;;;;5050147;28;20129;-46
2021/12/22 04:34:10;;;;;;;21.57;11.97;;;-3.30;99.90;;;;;;5061313;28;20040;-46
2021/12/22 04:36:37;;;;;;;21.70;12.02;;;-3.20;99.90;;;;;;5056650;28;20302;-45
2021/12/22 04:39:04;;;;;;;21.65;12.25;;;-3.30;99.90;;;;;;5051005;28;20077;-45
2021/12/22 04:41:31;;;;;;;23.58;12.07;;;-2.60;99.90;;;;;;5058842;28;20048;-46
2021/12/22 04:43:57;;;;;;;21.08;11.57;;;-3.30;99.90;;;;;;5052488;28;20087;-46
2021/12/22 04:46:24;;;;;;;22.17;11.80;;;-3.30;99.90;;;;;;5055336;28;20487;-46
2021/12/22 04:48:50;;;;;;;25.03;12.43;;;-3.30;99.90;;;;;;5037424;28;20044;-46
2021/12/22 04:51:29;;;;;;;20.48;11.82;;;-3.30;99.90;;;;;;5050872;28;20122;-45
2021/12/22 04:56:27;;;;;;;21.60;11.60;;;-3.30;99.90;;;;;;5063699;28;20056;-45
2021/12/22 04:58:54;;;;;;;23.60;12.45;;;-3.40;99.90;;;;;;5064318;28;20044;-46
2021/12/22 05:01:20;;;;;;;23.73;12.32;;;-3.40;99.90;;;;;;5086445;28;20050;-45
2021/12/22 05:03:46;;;;;;;23.60;12.25;;;-3.40;99.90;;;;;;5051465;28;20123;-45
2021/12/22 05:06:12;;;;;;;26.02;11.68;;;-3.40;99.90;;;;;;5050041;28;20070;-45
2021/12/22 05:08:38;;;;;;;20.17;11.70;;;-3.40;99.90;;;;;;5050768;28;20095;-46
2021/12/22 05:11:05;;;;;;;24.65;12.80;;;-3.40;99.90;;;;;;5048963;28;20362;-45
2021/12/22 05:13:33;;;;;;;20.10;11.52;;;-3.50;99.90;;;;;;5045727;28;20052;-45
2021/12/22 05:16:00;;;;;;;23.70;11.95;;;-3.50;99.90;;;;;;5068073;28;20140;-46
2021/12/22 05:18:48;;;;;;;20.65;11.75;;;-3.50;99.90;;;;;;5050195;28;20072;-47
2021/12/22 05:21:12;;;;;;;21.95;11.73;;;-3.50;99.90;;;;;;5054712;28;20083;-45
2021/12/22 05:23:38;;;;;;;21.10;12.05;;;-3.50;99.90;;;;;;5053684;28;20080;-47
2021/12/22 05:26:04;;;;;;;21.85;10.85;;;-3.50;99.90;;;;;;5049220;28;20044;-46
2021/12/22 05:28:29;;;;;;;22.23;11.55;;;-3.50;99.90;;;;;;5082131;28;20094;-46
2021/12/22 05:30:58;;;;;;;24.95;12.00;;;-3.50;99.90;;;;;;5059722;28;20032;-45
2021/12/22 05:33:24;;;;;;;24.13;12.27;;;-3.50;99.90;;;;;;5051036;28;20040;-46
2021/12/22 05:35:50;;;;;;;24.08;11.45;;;-2.60;99.90;;;;;;5047317;28;20431;-45
2021/12/22 05:38:17;;;;;;;22.65;10.85;;;-3.60;99.90;;;;;;5049242;28;20045;-45
2021/12/22 05:40:43;;;;;;;22.27;11.85;;;-3.60;99.90;;;;;;5049595;28;20076;-45
2021/12/22 05:43:09;;;;;;;20.55;11.75;;;-3.60;99.90;;;;;;5064875;28;20051;-46
2021/12/22 05:45:35;;;;;;;21.25;11.73;;;-3.60;99.90;;;;;;5058549;28;20070;-45
2021/12/22 05:48:01;;;;;;;24.48;11.73;;;-3.60;99.90;;;;;;5056053;28;20241;-46
2021/12/22 05:50:28;;;;;;;25.42;12.02;;;-3.60;99.90;;;;;;5056931;28;20155;-45
2021/12/22 05:52:54;;;;;;;23.95;12.25;;;-3.60;99.90;;;;;;5047653;28;20094;-47
2021/12/22 05:55:20;;;;;;;24.00;11.98;;;-3.60;99.90;;;;;;5050072;28;20044;-45
2021/12/22 05:57:46;;;;;;;24.63;11.50;;;-3.60;99.90;;;;;;5036236;28;20613;-45
2021/12/22 06:00:13;;;;;;;25.42;12.27;;;-3.60;99.90;;;;;;5056936;28;20279;-45
2021/12/22 06:02:39;;;;;;;22.25;12.05;;;-3.60;99.90;;;;;;5064381;28;20040;-46
2021/12/22 06:05:06;;;;;;;26.02;12.38;;;-3.70;99.90;;;;;;5050735;28;20040;-45
2021/12/22 06:07:32;;;;;;;24.55;11.85;;;-3.70;99.90;;;;;;5048260;28;20045;-45
2021/12/22 06:10:00;;;;;;;24.30;12.18;;;-3.70;99.90;;;;;;5060703;28;20036;-45
2021/12/22 06:12:26;;;;;;;26.45;14.32;;;-3.70;99.90;;;;;;5046732;28;20511;-45
2021/12/22 06:14:52;;;;;;;22.40;11.85;;;-3.70;99.90;;;;;;5062325;28;20088;-46
2021/12/22 06:17:18;;;;;;;23.48;11.90;;;-3.70;99.90;;;;;;5040052;28;20106;-45
2021/12/22 06:19:44;;;;;;;25.63;12.32;;;-3.70;99.90;;;;;;5042183;28;20044;-46
2021/12/22 06:22:11;;;;;;;23.30;12.57;;;-3.80;99.90;;;;;;5064451;28;20055;-45
2021/12/22 06:24:36;;;;;;;27.00;12.45;;;-3.80;99.90;;;;;;5056727;28;20049;-46
2021/12/22 06:27:03;;;;;;;25.00;12.65;;;-3.80;99.90;;;;;;5033546;28;20044;-46
2021/12/22 06:29:29;;;;;;;21.02;12.40;;;-3.80;99.90;;;;;;5070941;28;20040;-45
2021/12/22 06:31:55;;;;;;;25.30;12.55;;;-3.80;99.90;;;;;;5063602;28;20773;-45
2021/12/22 06:34:22;;;;;;;25.80;12.40;;;-3.80;99.90;;;;;;5067250;28;20114;-46
2021/12/22 06:36:51;;;;;;;29.17;13.02;;;-3.80;99.90;;;;;;5058587;28;20057;-45
2021/12/22 06:39:18;;;;;;;23.52;12.45;;;-3.80;99.90;;;;;;5047187;28;20048;-46
2021/12/22 06:41:46;;;;;;;23.30;11.63;;;-3.80;99.90;;;;;;5081220;28;20059;-45
2021/12/22 06:44:14;;;;;;;27.40;12.98;;;-3.80;99.90;;;;;;5050782;28;20036;-45
2021/12/22 06:46:42;;;;;;;23.13;13.73;;;-3.90;99.90;;;;;;5060062;28;20048;-45
2021/12/22 06:49:10;;;;;;;24.25;12.05;;;-3.90;99.90;;;;;;5058847;28;20044;-45
2021/12/22 06:51:37;;;;;;;26.05;13.07;;;-3.90;99.90;;;;;;5029827;28;20037;-45
2021/12/22 06:54:05;;;;;;;26.50;12.70;;;-3.90;99.90;;;;;;5046775;28;20072;-45
2021/12/22 06:56:31;;;;;;;;;;;-3.90;99.90;;;;;;5047943;28;20494;-46
2021/12/22 06:58:59;;;;;;;23.73;12.38;;;-3.90;99.90;;;;;;5047342;28;19921;-45
2021/12/22 07:01:26;;;;;;;21.70;12.27;;;-3.90;99.90;;;;;;5030878;28;20169;-46
2021/12/22 07:03:51;;;;;;;25.00;13.02;;;-4.00;99.90;;;;;;5049614;28;20538;-45
2021/12/22 07:06:19;;;;;;;25.80;11.93;;;-4.00;99.90;;;;;;5063851;28;20041;-45
2021/12/22 07:08:45;;;;;;;26.27;13.02;;;-4.00;99.90;;;;;;5051828;28;20044;-46
2021/12/22 07:11:12;;;;;;;24.30;12.68;;;-4.00;99.90;;;;;;5051065;28;20056;-45
2021/12/22 07:13:39;;;;;;;25.20;12.60;;;-4.00;99.90;;;;;;5052609;28;20043;-47
2021/12/22 07:16:05;;;;;;;26.65;12.40;;;-4.00;99.90;;;;;;5034996;28;20499;-46
2021/12/22 07:18:32;;;;;;;27.70;12.55;;;-4.00;99.90;;;;;;5067822;28;20461;-45
2021/12/22 07:21:08;;;;;;;25.30;12.20;;;-4.00;99.90;;;;;;5070731;28;20136;-45
2021/12/22 07:23:34;;;;;;;21.88;11.95;;;-4.10;99.90;;;;;;5069912;28;20073;-45
2021/12/22 07:26:24;;;;;;;24.85;13.57;;;-4.00;99.90;;;;;;5071301;28;20421;-45
2021/12/22 07:28:49;;;;;;;24.05;12.88;;;-4.10;99.90;;;;;;5069905;28;20076;-49
2021/12/22 07:31:16;;;;;;;25.58;11.38;;;-4.10;99.90;;;;;;5071133;28;20079;-46
2021/12/22 07:34:07;;;;;;;27.13;13.23;;;-4.10;99.90;;;;;;5068091;28;20641;-45
2021/12/22 07:36:55;;;;;;;25.13;12.60;;;-4.10;99.90;;;;;;5068675;28;20078;-45
2021/12/22 07:39:20;;;;;;;28.58;12.95;;;-4.10;99.90;;;;;;5095191;28;20463;-45
2021/12/22 07:41:46;;;;;;;28.55;13.38;;;-4.10;99.90;;;;;;5071196;28;20119;-47
2021/12/22 07:44:12;;;;;;;24.63;12.68;;;-4.10;99.90;;;;;;5069844;28;20032;-46
2021/12/22 07:46:38;;;;;;;26.48;12.90;;;-4.10;99.90;;;;;;5070622;28;20039;-46
2021/12/22 07:49:04;;;;;;;24.23;11.98;;;-4.10;99.90;;;;;;5068364;28;20405;-47
2021/12/22 07:51:31;;;;;;;25.92;13.20;;;-4.10;99.90;;;;;;5072078;28;20066;-47
2021/12/22 07:53:57;;;;;;;30.48;13.48;;;-4.10;99.90;;;;;;5069476;28;20037;-46
2021/12/22 07:56:23;;;;;;;27.42;12.98;;;-4.10;99.90;;;;;;5051033;28;20119;-46
2021/12/22 07:58:49;;;;;;;27.13;14.13;;;-4.00;99.90;;;;;;5053198;28;20071;-46
2021/12/22 08:01:15;;;;;;;24.50;13.23;;;-4.10;99.90;;;;;;5049750;28;20044;-47
2021/12/22 08:03:41;;;;;;;27.08;13.50;;;-4.00;99.90;;;;;;5069340;28;20040;-46
2021/12/22 08:06:07;;;;;;;25.08;13.02;;;-4.00;99.90;;;;;;5067929;28;20044;-46
2021/12/22 08:08:33;;;;;;;27.80;12.85;;;-4.00;99.90;;;;;;5067038;28;20636;-46
2021/12/22 08:10:59;;;;;;;24.88;13.02;;;-4.00;99.90;;;;;;5070868;28;20044;-46
2021/12/22 08:13:25;;;;;;;25.20;12.30;;;-4.10;99.90;;;;;;5070489;28;20463;-46
2021/12/22 08:15:51;;;;;;;28.50;12.88;;;-4.00;99.90;;;;;;5069841;28;20139;-46
2021/12/22 08:18:17;;;;;;;25.60;12.32;;;-3.90;99.90;;;;;;5066557;28;20040;-46
2021/12/22 08:20:43;;;;;;;22.92;12.63;;;-3.90;99.90;;;;;;5064769;28;20089;-46
2021/12/22 08:23:09;;;;;;;26.80;13.10;;;-3.80;99.90;;;;;;5068402;28;20029;-47
2021/12/22 08:25:36;;;;;;;22.70;12.17;;;-3.80;99.90;;;;;;5068369;28;20128;-46
2021/12/22 08:28:02;;;;;;;24.38;12.35;;;-3.70;99.90;;;;;;5070373;28;20044;-46
2021/12/22 08:30:28;;;;;;;24.38;12.50;;;-3.70;99.90;;;;;;5050040;28;20073;-47
2021/12/22 08:32:55;;;;;;;21.50;13.25;;;-3.60;99.90;;;;;;5067779;28;20055;-47
2021/12/22 08:35:25;;;;;;;27.17;12.95;;;-3.60;99.90;;;;;;5068956;28;20047;-47
2021/12/22 08:40:36;;;;;;;30.08;13.10;;;-3.50;99.90;;;;;;5098353;28;20523;-47
2021/12/22 08:43:02;;;;;;;26.23;12.77;;;-3.40;99.90;;;;;;5068950;28;20037;-50
2021/12/22 08:45:28;;;;;;;25.63;13.25;;;-3.40;99.90;;;;;;5064498;28;20127;-50
2021/12/22 08:48:03;;;;;;;28.60;14.75;;;-3.30;99.90;;;;;;5069081;28;20115;-48
2021/12/22 08:50:29;;;;;;;22.77;12.35;;;-3.20;99.90;;;;;;5057411;28;20137;-46
2021/12/22 08:52:55;;;;;;;22.73;12.90;;;-3.20;99.90;;;;;;5070278;28;20094;-47
2021/12/22 08:55:21;;;;;;;26.83;13.38;;;-3.10;99.90;;;;;;5069291;28;20040;-47
2021/12/22 08:57:47;;;;;;;25.13;12.75;;;-3.10;99.90;;;;;;5068699;28;20040;-47
2021/12/22 09:00:14;;;;;;;24.33;12.75;;;-3.00;99.90;;;;;;5068305;28;20364;-49
2021/12/22 09:02:41;;;;;;;24.27;13.13;;;-3.00;99.90;;;;;;5070041;28;20414;-48
2021/12/22 09:05:07;;;;;;;27.25;12.18;;;-2.80;99.90;;;;;;5052465;28;20135;-48
2021/12/22 09:07:33;;;;;;;25.30;12.05;;;-2.90;99.90;;;;;;5068735;28;20044;-48
2021/12/22 09:09:59;;;;;;;25.67;13.10;;;-2.80;99.90;;;;;;5033853;28;20090;-50
2021/12/22 09:12:27;;;;;;;22.75;12.20;;;-2.80;99.90;;;;;;5066969;28;20126;-47
2021/12/22 09:14:53;;;;;;;22.42;12.10;;;-2.80;99.90;;;;;;5034934;28;20542;-47
2021/12/22 09:17:19;;;;;;;24.15;12.55;;;-2.70;99.90;;;;;;5051922;28;20197;-49
2021/12/22 09:19:45;;;;;;;26.25;13.43;;;-2.70;99.90;;;;;;5068947;28;20036;-47
2021/12/22 09:22:30;;;;;;;26.40;12.70;;;-2.60;99.90;;;;;;5051946;28;20041;-47
2021/12/22 09:24:56;;;;;;;26.25;12.55;;;-2.60;99.90;;;;;;5052209;28;20103;-48
2021/12/22 09:27:28;;;;;;;22.67;12.40;;;-2.50;99.90;;;;;;5062333;28;20039;-49
2021/12/22 09:29:54;;;;;;;25.90;12.10;;;-2.50;99.90;;;;;;5068832;28;20044;-47
2021/12/22 09:32:21;;;;;;;21.95;12.10;;;-2.40;99.90;;;;;;5069202;28;20063;-50
2021/12/22 09:34:49;;;;;;;21.65;12.80;;;-2.40;99.90;;;;;;5061709;28;20717;-50
2021/12/22 09:37:16;;;;;;;;;;;-2.30;99.90;;;;;;5069435;28;20386;-47
2021/12/22 09:39:42;;;;;;;28.23;12.82;;;-2.30;99.90;;;;;;5069013;28;19923;-48
2021/12/22 09:42:09;;;;;;;25.58;12.98;;;-2.20;99.90;;;;;;5066752;28;20040;-49
2021/12/22 09:44:43;;;;;;;24.83;12.82;;;-2.10;99.90;;;;;;5069069;28;20557;-51
2021/12/22 09:47:17;;;;;;;25.05;12.68;;;-2.10;99.90;;;;;;5047284;28;20588;-48
2021/12/22 09:52:21;;;;;;;28.95;13.40;;;-1.90;99.90;;;;;;5070568;28;20048;-50
2021/12/22 09:54:52;;;;;;;;;;;-1.90;99.90;;;;;;5066748;28;20040;-47
2021/12/22 09:57:20;;;;;;;28.63;12.65;;;-1.80;99.90;;;;;;5068565;28;19994;-49
2021/12/22 09:59:47;;;;;;;21.38;11.45;;;-1.70;99.90;;;;;;5066396;28;20048;-47
2021/12/22 10:02:14;;;;;;;;;;;-1.70;99.90;;;;;;5061064;28;20037;-48
2021/12/22 10:04:40;;;;;;;24.40;11.82;;;-1.60;99.90;;;;;;5060165;28;19920;-48
2021/12/22 10:07:08;;;;;;;26.67;11.18;;;-1.60;99.90;;;;;;5064918;28;20083;-48
2021/12/22 10:09:43;;;;;;;24.55;12.80;;;-1.50;99.90;;;;;;5066272;28;20261;-47
2021/12/22 10:12:21;;;;;;;26.15;12.48;;;-1.50;99.90;;;;;;5063443;28;20115;-48
2021/12/22 10:14:50;;;;;;;24.98;11.45;;;-1.40;99.90;;;;;;5067344;28;20044;-47
2021/12/22 10:17:40;;;;;;;22.30;11.82;;;-1.30;99.90;;;;;;5064963;28;20037;-47
2021/12/22 10:20:08;;;;;;;23.92;11.93;;;-1.30;99.90;;;;;;5082391;28;20132;-48
2021/12/22 10:22:47;;;;;;;20.50;11.05;;;-1.20;99.90;;;;;;5064976;28;20739;-47
2021/12/22 10:25:16;;;;;;;;;;;-1.20;99.90;;;;;;5068233;28;20427;-47
2021/12/22 10:27:56;;;;;;;22.90;11.40;;;-1.20;99.90;;;;;;5048734;28;19924;-47
2021/12/22 10:30:26;;;;;;;23.98;11.77;;;-1.20;99.90;;;;;;5063574;28;20044;-49
2021/12/22 10:33:07;;;;;;;23.75;10.95;;;-1.10;99.90;;;;;;5058225;28;20048;-49
2021/12/22 10:35:35;;;;;;;21.27;10.85;;;-1.10;99.90;;;;;;5058412;28;20083;-48
2021/12/22 10:38:03;;;;;;;21.60;11.52;;;-1.00;99.90;;;;;;5055663;28;20040;-47
2021/12/22 10:40:31;;;;;;;17.77;10.57;;;-1.00;99.90;;;;;;5049818;28;20043;-47
2021/12/22 10:42:59;;;;;;;21.25;11.20;;;;;;;;;;5067121;28;20386;-47
2021/12/22 10:45:28;;;;;;;22.50;11.50;;;-0.80;99.90;;;;;;5065049;28;20040;-47
2021/12/22 10:50:42;;;;;;;21.38;10.73;;;-0.70;99.90;;;;;;5068891;28;20051;-47
2021/12/22 10:53:11;;;;;;;20.60;10.50;;;-0.70;99.90;;;;;;5050096;28;20115;-48
2021/12/22 10:55:50;;;;;;;24.85;10.98;;;-0.70;99.90;;;;;;5065838;28;20048;-47
2021/12/22 10:58:32;;;;;;;19.75;10.23;;;-0.70;99.90;;;;;;5050353;28;20470;-48
2021/12/22 11:01:14;;;;;;;23.80;11.35;;;-0.60;99.90;;;;;;5065572;28;20109;-49
2021/12/22 11:03:46;;;;;;;21.23;10.52;;;-0.60;99.90;;;;;;5065965;28;20041;-47
2021/12/22 11:06:21;;;;;;;19.23;11.13;;;-0.60;99.90;;;;;;5067567;28;20455;-47
2021/12/22 11:09:01;;;;;;;22.65;11.32;;;-0.60;99.90;;;;;;5093908;28;20156;-47
2021/12/22 11:11:38;;;;;;;30.70;11.40;;;-0.50;99.90;;;;;;5067330;28;20056;-47
2021/12/22 11:14:16;;;;;;;22.92;10.40;;;-0.40;99.90;;;;;;5069293;28;20054;-50
2021/12/22 11:17:01;;;;;;;19.50;10.38;;;-0.50;99.90;;;;;;5062560;28;20057;-47
2021/12/22 11:19:33;;;;;;;19.63;10.68;;;-0.50;99.90;;;;;;5065982;28;20049;-49
2021/12/22 11:22:16;;;;;;;22.38;10.77;;;-0.40;99.90;;;;;;5067710;28;20051;-48
2021/12/22 11:24:46;;;;;;;17.67;10.45;;;-0.50;99.90;;;;;;5069020;28;20090;-48
2021/12/22 11:27:14;;;;;;;21.80;10.30;;;-0.50;99.90;;;;;;5054442;28;20105;-47
2021/12/22 11:29:43;;;;;;;17.52;10.55;;;-0.50;99.90;;;;;;5047755;28;20127;-48
2021/12/22 11:32:10;;;;;;;18.23;10.38;;;-0.50;99.90;;;;;;5080890;28;20049;-47
2021/12/22 11:34:38;;;;;;;20.25;10.60;;;-0.50;99.90;;;;;;5048896;28;20063;-48
2021/12/22 11:37:09;;;;;;;;;;;-0.50;99.90;;;;;;5061450;28;20040;-48
2021/12/22 11:39:35;;;;;;;21.23;10.68;;;-0.50;99.90;;;;;;5060116;28;20390;-48
2021/12/22 11:42:06;;;;;;;21.02;11.10;;;-0.40;99.90;;;;;;5068413;28;20359;-48
2021/12/22 11:44:36;;;;;;;21.92;10.55;;;-0.40;99.90;;;;;;5060756;28;20075;-48
2021/12/22 11:47:08;;;;;;;16.00;9.88;;;0.20;99.90;;;;;;5058715;28;20613;-50
2021/12/22 11:49:37;;;;;;;19.67;11.13;;;-0.30;99.90;;;;;;5067642;28;20036;-47
2021/12/22 11:52:32;;;;;;;18.58;10.75;;;-0.30;99.90;;;;;;5069124;28;20063;-48
2021/12/22 11:55:19;;;;;;;20.30;9.85;;;-0.20;99.90;;;;;;5072160;28;20592;-47
2021/12/22 11:58:11;;;;;;;19.33;9.45;;;-0.20;99.90;;;;;;5085420;28;20375;-48
2021/12/22 12:00:39;;;;;;;18.25;11.00;;;-0.20;99.90;;;;;;5062116;28;20203;-48
2021/12/22 12:03:29;;;;;;;15.90;8.75;;;-0.20;99.90;;;;;;5040854;28;20048;-49
2021/12/22 12:06:09;;;;;;;18.73;10.55;;;-0.20;99.90;;;;;;5069865;28;20052;-49
2021/12/22 12:08:47;;;;;;;20.15;9.95;;;-0.20;99.90;;;;;;5060400;28;20041;-48
2021/12/22 12:11:16;;;;;;;;;;;-0.20;99.90;;;;;;5083462;28;20036;-47
2021/12/22 12:13:57;;;;;;;19.08;10.30;;;-0.30;99.90;;;;;;5050524;28;19942;-48
2021/12/22 12:22:30;;;;;;;17.33;10.00;;;-0.30;99.90;;;;;;5048933;28;20091;-48
2021/12/22 12:25:11;;;;;;;16.10;9.52;;;-0.30;99.90;;;;;;5092252;28;20044;-47
2021/12/22 12:27:44;;;;;;;21.45;9.63;;;-0.20;99.90;;;;;;5054398;28;20075;-47
2021/12/22 12:30:16;;;;;;;16.60;9.48;;;-0.20;99.90;;;;;;5044656;28;20043;-48
2021/12/22 12:32:45;;;;;;;16.23;8.73;;;-0.20;99.90;;;;;;5094586;28;20162;-47
2021/12/22 12:35:18;;;;;;;17.30;8.70;;;-0.20;99.90;;;;;;5071113;28;20032;-48
2021/12/22 12:38:16;;;;;;;17.92;9.10;;;-0.20;99.90;;;;;;5078704;28;20040;-47
2021/12/22 12:40:57;;;;;;;15.15;8.93;;;-0.20;99.90;;;;;;5076321;28;20036;-48
2021/12/22 12:43:45;;;;;;;17.98;10.05;;;-0.10;99.90;;;;;;5063588;28;20054;-48
2021/12/22 12:46:20;;;;;;;15.20;8.52;;;-0.10;99.90;;;;;;5069755;28;20501;-49
2021/12/22 12:49:04;;;;;;;15.57;9.57;;;0.00;99.90;;;;;;5093438;28;20056;-48
2021/12/22 12:51:35;;;;;;;17.90;9.48;;;0.00;99.90;;;;;;5095786;28;20597;-48
2021/12/22 12:54:07;;;;;;;16.88;9.27;;;0.00;99.90;;;;;;5074749;28;20033;-48
2021/12/22 12:56:36;;;;;;;16.35;9.35;;;0.00;99.90;;;;;;5065728;28;20074;-47
2021/12/22 12:59:08;;;;;;;16.27;9.20;;;0.00;99.90;;;;;;5060473;28;20052;-48
2021/12/22 13:01:49;;;;;;;15.25;9.52;;;0.10;99.90;;;;;;5050257;28;20049;-49
2021/12/22 13:04:31;;;;;;;17.73;9.55;;;0.10;99.90;;;;;;5049075;28;20052;-48
2021/12/22 13:07:00;;;;;;;17.15;8.73;;;0.10;99.90;;;;;;5057278;28;20059;-48
2021/12/22 13:09:31;;;;;;;14.45;8.80;;;0.10;99.90;;;;;;5050228;28;20509;-48
2021/12/22 13:12:09;;;;;;;17.15;8.70;;;0.10;99.90;;;;;;5050222;28;20114;-48
2021/12/22 13:17:25;;;;;;;17.30;9.25;;;0.10;99.90;;;;;;5061540;28;20079;-49